Time;durP1;ratioP1;P1;durP2;ratioP2;P2;SDS_P1;SDS_P2;PMS_P1;PMS_P2;Temp;Humidity;BMP_temperature;BMP_pressure;BME280_temperature;BME280_humidity;BME280_pressure;Samples;Min_cycle;Max_cycle;Signal;HPM_P1;HPM_P2
2024/01/15 00:01:30;;;;;;;2.73;1.60;;;;;;;;;;5095648;28;20917;-74
2024/01/15 00:03:57;;;;;;;4.07;1.67;;;;;;;;;;5078477;28;20486;-74
2024/01/15 00:06:26;;;;;;;4.17;1.03;;;;;;;;;;5078574;28;20447;-73
2024/01/15 00:08:53;;;;;;;1.77;1.00;;;;;;;;;;5062795;28;20468;-74
2024/01/15 00:11:20;;;;;;;2.57;0.57;;;;;;;;;;5075252;28;20420;-73
2024/01/15 00:13:46;;;;;;;1.67;0.87;;;;;;;;;;5075061;28;20427;-73
2024/01/15 00:16:13;;;;;;;3.13;1.10;;;;;;;;;;5057545;28;20447;-74
2024/01/15 00:18:40;;;;;;;4.00;1.20;;;;;;;;;;5040820;28;20450;-74
2024/01/15 00:21:07;;;;;;;1.50;1.00;;;;;;;;;;5057496;28;20439;-74
2024/01/15 00:23:33;;;;;;;1.80;1.23;;;;;;;;;;5057088;28;20455;-73
2024/01/15 00:26:00;;;;;;;2.10;1.07;;;;;;;;;;5074583;28;20417;-74
2024/01/15 00:28:27;;;;;;;3.40;1.23;;;;;;;;;;5075968;28;20424;-74
2024/01/15 00:30:53;;;;;;;2.60;1.43;;;;;;;;;;5074820;28;20436;-74
2024/01/15 00:33:20;;;;;;;2.00;1.03;;;;;;;;;;5074750;28;20429;-74
2024/01/15 00:35:47;;;;;;;2.80;1.33;;;;;;;;;;5075336;28;20955;-74
2024/01/15 00:38:13;;;;;;;3.37;1.00;;;;;;;;;;5075288;28;20738;-74
2024/01/15 00:40:40;;;;;;;1.83;0.90;;;;;;;;;;5074619;28;20428;-73
2024/01/15 00:43:24;;;;;;;3.07;1.50;;;;;;;;;;5059680;28;20442;-73
2024/01/15 00:45:50;;;;;;;2.60;1.40;;;;;;;;;;5074829;28;20412;-74
2024/01/15 00:48:17;;;;;;;2.60;1.10;;;;;;;;;;5075476;28;20423;-74
2024/01/15 00:50:44;;;;;;;2.00;1.50;;;;;;;;;;5074879;28;20420;-73
2024/01/15 00:53:10;;;;;;;1.37;1.00;;;;;;;;;;5074397;28;20776;-73
2024/01/15 00:55:37;;;;;;;1.37;0.80;;;;;;;;;;5075209;28;20420;-74
2024/01/15 00:58:04;;;;;;;3.60;1.33;;;;;;;;;;5056610;28;20444;-73
2024/01/15 01:00:30;;;;;;;1.87;1.33;;;;;;;;;;5057060;28;20426;-73
2024/01/15 01:02:57;;;;;;;2.27;1.20;;;;;;;;;;5074386;28;20444;-73
2024/01/15 01:05:24;;;;;;;2.40;1.10;;;;;;;;;;5055173;28;20446;-73
2024/01/15 01:07:50;;;;;;;3.30;1.10;;;;;;;;;;5042550;28;20489;-74
2024/01/15 01:10:18;;;;;;;3.20;1.13;;;;;;;;;;5074538;28;20426;-73
2024/01/15 01:12:44;;;;;;;1.60;1.00;;;;;;;;;;5056266;28;20443;-74
2024/01/15 01:47:29;;;;;;;2.10;1.00;;;;;;;;;;5073695;28;20384;-74
2024/01/15 01:49:56;;;;;;;1.10;0.90;;;;;;;;;;5056092;28;20455;-73
2024/01/15 01:52:23;;;;;;;3.43;1.40;;;;;;;;;;5039834;28;20433;-73
2024/01/15 01:54:50;;;;;;;3.17;1.60;;;;;;;;;;5039666;28;20932;-74
2024/01/15 01:57:16;;;;;;;1.40;1.10;;;;;;;;;;5056071;28;20416;-74
2024/01/15 01:59:43;;;;;;;1.67;1.33;;;;;;;;;;5039431;28;20441;-74
2024/01/15 02:02:10;;;;;;;5.77;1.20;;;;;;;;;;5074297;28;20416;-73
2024/01/15 02:04:54;;;;;;;1.97;1.10;;;;;;;;;;5058684;28;20887;-74
2024/01/15 02:07:21;;;;;;;5.53;1.83;;;;;;;;;;5072588;28;20845;-74
2024/01/15 02:09:48;;;;;;;1.83;1.23;;;;;;;;;;5039658;28;20420;-74
2024/01/15 02:12:15;;;;;;;2.20;1.43;;;;;;;;;;5056221;28;20432;-73
2024/01/15 02:14:41;;;;;;;2.43;1.53;;;;;;;;;;5056305;28;20927;-73
2024/01/15 02:17:08;;;;;;;1.60;1.10;;;;;;;;;;5056211;28;20432;-74
2024/01/15 02:19:36;;;;;;;1.93;1.30;;;;;;;;;;5074226;28;20425;-73
2024/01/15 02:22:03;;;;;;;2.57;1.70;;;;;;;;;;5073809;28;20428;-73
2024/01/15 02:24:47;;;;;;;1.27;0.93;;;;;;;;;;5058414;28;20468;-74
2024/01/15 02:27:13;;;;;;;1.70;0.93;;;;;;;;;;5073759;28;20469;-74
2024/01/15 02:29:40;;;;;;;2.77;1.50;;;;;;;;;;5056124;28;20442;-73
2024/01/15 02:32:08;;;;;;;4.27;2.13;;;;;;;;;;5038899;28;20461;-73
2024/01/15 02:34:35;;;;;;;2.43;1.70;;;;;;;;;;5055739;28;20428;-74
2024/01/15 02:37:20;;;;;;;3.07;1.73;;;;;;;;;;5058094;28;20397;-73
2024/01/15 02:39:46;;;;;;;1.90;1.47;;;;;;;;;;5073367;28;20923;-73
2024/01/15 02:42:13;;;;;;;3.40;2.40;;;;;;;;;;5073405;28;20466;-74
2024/01/15 02:44:40;;;;;;;2.43;1.83;;;;;;;;;;5089225;28;20841;-74
2024/01/15 02:47:07;;;;;;;1.83;1.07;;;;;;;;;;5095036;28;20435;-73
2024/01/15 02:49:51;;;;;;;4.00;2.13;;;;;;;;;;5081903;28;20379;-73
2024/01/15 02:52:18;;;;;;;3.53;1.87;;;;;;;;;;5079140;28;20978;-73
2024/01/15 02:54:44;;;;;;;2.63;1.77;;;;;;;;;;5079900;28;20444;-74
2024/01/15 02:57:11;;;;;;;2.33;1.90;;;;;;;;;;5097127;28;20433;-74
2024/01/15 02:59:38;;;;;;;4.13;2.30;;;;;;;;;;5079501;28;20427;-74
2024/01/15 03:02:04;;;;;;;3.90;2.17;;;;;;;;;;5079037;28;20538;-73
2024/01/15 03:04:31;;;;;;;1.77;1.10;;;;;;;;;;5078632;28;20464;-73
2024/01/15 03:06:58;;;;;;;4.30;2.50;;;;;;;;;;5079688;28;20427;-73
2024/01/15 03:09:25;;;;;;;2.27;1.50;;;;;;;;;;5097636;28;20538;-73
2024/01/15 03:11:51;;;;;;;3.23;2.40;;;;;;;;;;5079343;28;20462;-77
2024/01/15 03:14:18;;;;;;;4.23;2.73;;;;;;;;;;5078646;28;20821;-69
2024/01/15 03:16:45;;;;;;;4.23;3.07;;;;;;;;;;5078432;28;20409;-69
2024/01/15 03:19:12;;;;;;;4.30;2.57;;;;;;;;;;5078231;28;20443;-78
2024/01/15 03:21:39;;;;;;;4.97;2.97;;;;;;;;;;5062443;28;20894;-73
2024/01/15 03:24:06;;;;;;;3.63;1.97;;;;;;;;;;5096546;28;20462;-73
2024/01/15 03:26:33;;;;;;;2.47;1.50;;;;;;;;;;5062901;28;20527;-74
2024/01/15 03:28:59;;;;;;;3.57;2.40;;;;;;;;;;5096706;28;20458;-67
2024/01/15 03:31:26;;;;;;;3.47;2.40;;;;;;;;;;5061855;28;20451;-74
2024/01/15 03:33:53;;;;;;;3.33;1.93;;;;;;;;;;5062227;28;20967;-75
2024/01/15 03:36:20;;;;;;;4.90;3.03;;;;;;;;;;5062509;28;20732;-75
2024/01/15 03:39:04;;;;;;;3.17;1.77;;;;;;;;;;5096561;28;20388;-74
2024/01/15 03:41:31;;;;;;;2.23;1.67;;;;;;;;;;5078840;28;20411;-74
2024/01/15 03:43:59;;;;;;;4.37;2.93;;;;;;;;;;5061881;28;20459;-74
2024/01/15 03:46:25;;;;;;;2.30;1.43;;;;;;;;;;5078041;28;20420;-73
2024/01/15 03:48:52;;;;;;;2.10;1.57;;;;;;;;;;5077986;28;20444;-70
2024/01/15 03:51:19;;;;;;;1.97;1.63;;;;;;;;;;5096102;28;20407;-71
2024/01/15 03:53:46;;;;;;;2.73;1.80;;;;;;;;;;5061321;28;20431;-71
2024/01/15 03:56:13;;;;;;;5.93;3.80;;;;;;;;;;5061284;28;20423;-70
2024/01/15 03:58:57;;;;;;;2.33;1.80;;;;;;;;;;5079523;28;20392;-71
2024/01/15 04:01:26;;;;;;;4.47;2.40;;;;;;;;;;5061415;28;20436;-74
2024/01/15 04:03:53;;;;;;;6.63;3.13;;;;;;;;;;5059588;28;20550;-74
2024/01/15 04:06:20;;;;;;;2.00;1.67;;;;;;;;;;5048155;28;20436;-73
2024/01/15 04:08:47;;;;;;;3.20;2.23;;;;;;;;;;5047803;28;20804;-74
2024/01/15 04:11:14;;;;;;;3.93;2.87;;;;;;;;;;5047983;28;20454;-75
2024/01/15 04:13:41;;;;;;;4.40;2.67;;;;;;;;;;5048095;28;20592;-74
2024/01/15 04:16:08;;;;;;;5.97;3.37;;;;;;;;;;5031702;28;20418;-71
2024/01/15 04:18:35;;;;;;;3.57;2.67;;;;;;;;;;5031591;28;20798;-70
2024/01/15 04:21:04;;;;;;;3.73;2.80;;;;;;;;;;5048023;28;20904;-70
2024/01/15 04:23:30;;;;;;;4.33;2.77;;;;;;;;;;5044516;28;20476;-76
2024/01/15 04:25:57;;;;;;;6.07;3.57;;;;;;;;;;5015080;28;20424;-71
2024/01/15 04:28:24;;;;;;;2.00;1.60;;;;;;;;;;5031443;28;20532;-69
2024/01/15 04:30:51;;;;;;;1.87;1.53;;;;;;;;;;5047649;28;20449;-77
2024/01/15 04:33:19;;;;;;;1.67;1.27;;;;;;;;;;5031314;28;20435;-75
2024/01/15 04:35:46;;;;;;;5.67;2.17;;;;;;;;;;5047424;28;20547;-75
2024/01/15 04:38:12;;;;;;;3.03;1.40;;;;;;;;;;5055039;28;20440;-75
2024/01/15 04:40:39;;;;;;;4.40;3.10;;;;;;;;;;5051092;28;20449;-75
2024/01/15 04:43:06;;;;;;;3.03;2.13;;;;;;;;;;5051139;28;20546;-74
2024/01/15 04:45:33;;;;;;;3.47;2.93;;;;;;;;;;5034137;28;20977;-77
2024/01/15 04:48:00;;;;;;;3.70;2.77;;;;;;;;;;5051414;28;20766;-69
2024/01/15 04:50:27;;;;;;;5.30;3.30;;;;;;;;;;5051406;28;20520;-70
2024/01/15 04:52:53;;;;;;;2.80;1.97;;;;;;;;;;5086001;28;20439;-69
2024/01/15 04:55:37;;;;;;;4.17;2.27;;;;;;;;;;5085641;28;20419;-74
2024/01/15 04:58:04;;;;;;;4.20;3.13;;;;;;;;;;5050681;28;20429;-74
2024/01/15 05:00:31;;;;;;;4.57;3.17;;;;;;;;;;5050709;28;20437;-73
2024/01/15 05:02:58;;;;;;;5.10;2.77;;;;;;;;;;5050848;28;20440;-76
2024/01/15 05:05:24;;;;;;;4.40;2.70;;;;;;;;;;5055868;28;20495;-74
2024/01/15 05:07:51;;;;;;;2.73;2.00;;;;;;;;;;5067090;28;20447;-75
2024/01/15 05:10:18;;;;;;;2.27;1.87;;;;;;;;;;5034339;28;20424;-70
2024/01/15 05:12:45;;;;;;;1.30;1.10;;;;;;;;;;5066525;28;20432;-78
2024/01/15 05:15:12;;;;;;;2.30;1.83;;;;;;;;;;5050695;28;20902;-74
2024/01/15 05:17:38;;;;;;;3.77;1.47;;;;;;;;;;5066882;28;20489;-74
2024/01/15 05:20:06;;;;;;;1.47;1.03;;;;;;;;;;5066805;28;20482;-69
2024/01/15 05:22:32;;;;;;;4.87;1.30;;;;;;;;;;5085281;28;20481;-70
2024/01/15 05:24:59;;;;;;;4.83;2.13;;;;;;;;;;5066690;28;20472;-71
2024/01/15 05:27:26;;;;;;;1.97;1.20;;;;;;;;;;5066925;28;20898;-70
2024/01/15 05:29:53;;;;;;;4.63;1.63;;;;;;;;;;5048977;28;20514;-70
2024/01/15 05:32:20;;;;;;;5.00;1.50;;;;;;;;;;5050035;28;20438;-70
2024/01/15 05:34:46;;;;;;;3.57;1.57;;;;;;;;;;5049966;28;20424;-74
2024/01/15 05:37:13;;;;;;;4.90;1.57;;;;;;;;;;5066976;28;20778;-73
2024/01/15 05:39:40;;;;;;;2.00;1.10;;;;;;;;;;5066856;28;20447;-73
2024/01/15 05:42:07;;;;;;;3.87;1.47;;;;;;;;;;5049895;28;20808;-69
2024/01/15 05:44:34;;;;;;;2.27;1.17;;;;;;;;;;5066402;28;21006;-68
2024/01/15 05:47:01;;;;;;;4.40;1.73;;;;;;;;;;5066570;28;20435;-69
2024/01/15 05:49:27;;;;;;;2.73;0.63;;;;;;;;;;5084522;28;20445;-69
2024/01/15 05:52:12;;;;;;;3.17;1.10;;;;;;;;;;5055023;28;20842;-69
2024/01/15 05:54:38;;;;;;;2.10;1.43;;;;;;;;;;5084610;28;20447;-69
2024/01/15 05:57:05;;;;;;;1.67;0.80;;;;;;;;;;5066341;28;20452;-69
2024/01/15 05:59:35;;;;;;;2.33;0.80;;;;;;;;;;5033289;28;20466;-69
2024/01/15 06:02:03;;;;;;;4.47;1.10;;;;;;;;;;5049611;28;20534;-70
2024/01/15 06:04:29;;;;;;;4.77;1.20;;;;;;;;;;5056546;28;20471;-69
2024/01/15 06:06:56;;;;;;;3.97;1.47;;;;;;;;;;5084533;28;20428;-69
2024/01/15 06:09:23;;;;;;;4.60;1.57;;;;;;;;;;5066295;28;20459;-73
2024/01/15 06:11:50;;;;;;;6.10;2.00;;;;;;;;;;5066382;28;22237;-73
2024/01/15 06:14:17;;;;;;;7.47;2.23;;;;;;;;;;5049977;28;20465;-73
2024/01/15 06:16:43;;;;;;;4.80;2.00;;;;;;;;;;5084430;28;20420;-74
2024/01/15 06:19:10;;;;;;;4.07;1.80;;;;;;;;;;5066212;28;20419;-73
2024/01/15 06:21:37;;;;;;;7.57;2.10;;;;;;;;;;5049522;28;20459;-73
2024/01/15 06:24:04;;;;;;;2.33;1.60;;;;;;;;;;5069813;28;21084;-67
2024/01/15 06:26:31;;;;;;;5.60;2.40;;;;;;;;;;5053518;28;20502;-72
2024/01/15 06:28:58;;;;;;;9.37;2.47;;;;;;;;;;5069541;28;20865;-71
2024/01/15 06:31:25;;;;;;;3.80;1.50;;;;;;;;;;5036636;28;20467;-73
2024/01/15 06:33:51;;;;;;;6.17;2.57;;;;;;;;;;5069855;28;20548;-68
2024/01/15 06:36:18;;;;;;;5.20;2.17;;;;;;;;;;5069862;28;20431;-71
2024/01/15 06:38:45;;;;;;;3.83;1.47;;;;;;;;;;5069129;28;20424;-73
2024/01/15 06:41:12;;;;;;;2.70;1.30;;;;;;;;;;5053353;28;20442;-74
2024/01/15 06:43:39;;;;;;;0.87;0.43;;;;;;;;;;5036603;28;21156;-76
2024/01/15 06:46:06;;;;;;;4.10;1.20;;;;;;;;;;5069327;28;20494;-74
2024/01/15 06:48:34;;;;;;;8.30;1.40;;;;;;;;;;5043892;28;20767;-68
2024/01/15 06:51:01;;;;;;;5.27;1.80;;;;;;;;;;5068937;28;20526;-68
2024/01/15 06:53:28;;;;;;;3.70;1.00;;;;;;;;;;5049827;28;20428;-68
2024/01/15 06:55:55;;;;;;;5.53;1.30;;;;;;;;;;5041798;28;20439;-68
2024/01/15 06:58:22;;;;;;;4.87;1.63;;;;;;;;;;5058765;28;20467;-68
2024/01/15 07:04:48;;;;;;;1.33;1.07;;;;;;;;;;5076455;28;20822;-68
2024/01/15 07:07:15;;;;;;;4.20;1.60;;;;;;;;;;5056372;28;20442;-75
2024/01/15 07:09:42;;;;;;;4.17;1.90;;;;;;;;;;5026239;28;20440;-69
2024/01/15 07:12:09;;;;;;;5.30;2.37;;;;;;;;;;5077085;28;20439;-73
2024/01/15 07:14:36;;;;;;;4.17;2.33;;;;;;;;;;5077037;28;20429;-73
2024/01/15 07:17:04;;;;;;;9.90;3.10;;;;;;;;;;5058615;28;20460;-73
2024/01/15 07:19:31;;;;;;;6.50;2.70;;;;;;;;;;5058669;28;20806;-75
2024/01/15 07:21:59;;;;;;;7.17;3.47;;;;;;;;;;5041987;28;20950;-74
2024/01/15 07:24:25;;;;;;;11.47;4.17;;;;;;;;;;5041826;28;20460;-73
2024/01/15 07:26:52;;;;;;;5.13;2.47;;;;;;;;;;5076218;28;20474;-73
2024/01/15 07:29:19;;;;;;;7.80;3.20;;;;;;;;;;5058286;28;20423;-75
2024/01/15 07:31:50;;;;;;;7.87;2.80;;;;;;;;;;5076082;28;20432;-74
2024/01/15 07:34:19;;;;;;;11.67;2.97;;;;;;;;;;5058017;28;20424;-74
2024/01/15 07:36:53;;;;;;;7.27;2.40;;;;;;;;;;5044199;28;20415;-70
2024/01/15 07:39:22;;;;;;;4.87;1.90;;;;;;;;;;5058161;28;20431;-70
2024/01/15 07:41:49;;;;;;;5.63;2.27;;;;;;;;;;5025770;28;20440;-76
2024/01/15 07:44:16;;;;;;;5.70;2.40;;;;;;;;;;5057936;28;20424;-75
2024/01/15 07:46:44;;;;;;;3.93;2.03;;;;;;;;;;5076612;28;20494;-76
2024/01/15 07:49:11;;;;;;;3.57;1.37;;;;;;;;;;5076245;28;20408;-68
2024/01/15 07:51:38;;;;;;;4.33;2.10;;;;;;;;;;5041520;28;20436;-70
2024/01/15 07:54:23;;;;;;;5.40;2.07;;;;;;;;;;5029571;28;20404;-72
2024/01/15 07:56:59;;;;;;;4.53;2.10;;;;;;;;;;5041759;28;20428;-72
2024/01/15 07:59:27;;;;;;;4.03;1.60;;;;;;;;;;5026234;28;20806;-69
2024/01/15 08:05:54;;;;;;;5.30;1.87;;;;;;;;;;5075526;28;20490;-73
2024/01/15 08:08:21;;;;;;;3.77;2.27;;;;;;;;;;5075681;28;20498;-74
2024/01/15 08:10:48;;;;;;;4.30;1.80;;;;;;;;;;5035700;28;20480;-70
2024/01/15 08:13:15;;;;;;;3.80;2.03;;;;;;;;;;5048708;28;20444;-69
2024/01/15 08:15:42;;;;;;;3.90;2.07;;;;;;;;;;5065615;28;20428;-71
2024/01/15 08:18:09;;;;;;;4.53;1.80;;;;;;;;;;5032016;28;21099;-70
2024/01/15 08:20:39;;;;;;;4.03;2.27;;;;;;;;;;5048928;28;20436;-67
2024/01/15 08:27:02;;;;;;;5.03;2.23;;;;;;;;;;5065723;28;20527;-70
2024/01/15 08:29:32;;;;;;;3.73;1.93;;;;;;;;;;5064415;28;20429;-73
2024/01/15 08:31:59;;;;;;;2.40;1.43;;;;;;;;;;5048795;28;20498;-70
2024/01/15 08:34:26;;;;;;;2.30;1.33;;;;;;;;;;5065913;28;20468;-69
2024/01/15 08:36:57;;;;;;;5.03;1.93;;;;;;;;;;5048531;28;20428;-74
2024/01/15 08:39:24;;;;;;;3.57;1.93;;;;;;;;;;5066592;28;20417;-76
2024/01/15 08:41:56;;;;;;;2.33;1.37;;;;;;;;;;5049979;28;20443;-74
2024/01/15 08:44:24;;;;;;;3.00;1.53;;;;;;;;;;5033369;28;20976;-75
2024/01/15 08:46:54;;;;;;;2.50;1.40;;;;;;;;;;5049131;28;20838;-77
2024/01/15 08:49:21;;;;;;;3.80;1.47;;;;;;;;;;5031263;28;20436;-69
2024/01/15 08:51:49;;;;;;;1.33;0.90;;;;;;;;;;5064653;28;20432;-78
2024/01/15 08:54:18;;;;;;;2.20;1.20;;;;;;;;;;5048497;28;20926;-69
2024/01/15 08:56:44;;;;;;;3.13;1.30;;;;;;;;;;5047591;28;20426;-68
2024/01/15 08:59:12;;;;;;;1.10;0.73;;;;;;;;;;5030449;28;20443;-67
2024/01/15 09:01:41;;;;;;;1.20;0.77;;;;;;;;;;5064101;28;20918;-76
2024/01/15 09:04:09;;;;;;;2.40;0.73;;;;;;;;;;5031585;28;20424;-77
2024/01/15 09:06:37;;;;;;;2.10;1.63;;;;;;;;;;5019128;28;20977;-73
2024/01/15 09:09:04;;;;;;;5.03;1.40;;;;;;;;;;5031218;28;20536;-74
2024/01/15 09:11:32;;;;;;;4.40;1.67;;;;;;;;;;5047294;28;20489;-74
2024/01/15 09:13:59;;;;;;;4.40;1.90;;;;;;;;;;5030661;28;20445;-75
2024/01/15 09:16:26;;;;;;;4.03;1.50;;;;;;;;;;5030858;28;20433;-76
2024/01/15 09:18:56;;;;;;;6.00;2.17;;;;;;;;;;5047590;28;20939;-75
2024/01/15 09:21:24;;;;;;;2.50;1.40;;;;;;;;;;5047747;28;20485;-77
2024/01/15 09:23:52;;;;;;;3.57;1.97;;;;;;;;;;5030903;28;20416;-74
2024/01/15 09:26:19;;;;;;;4.87;1.40;;;;;;;;;;5065221;28;20475;-74
2024/01/15 09:28:46;;;;;;;5.03;1.90;;;;;;;;;;5030461;28;20956;-74
2024/01/15 09:31:13;;;;;;;4.17;2.33;;;;;;;;;;5047099;28;20448;-73
2024/01/15 09:33:43;;;;;;;5.43;1.63;;;;;;;;;;5030246;28;20434;-73
2024/01/15 09:36:09;;;;;;;7.17;1.87;;;;;;;;;;5046824;28;20431;-73
2024/01/15 09:38:37;;;;;;;2.03;1.20;;;;;;;;;;5046893;28;20444;-74
2024/01/15 09:41:04;;;;;;;3.17;1.10;;;;;;;;;;5046886;28;20419;-73
2024/01/15 09:43:32;;;;;;;1.33;0.53;;;;;;;;;;5047740;28;20948;-72
2024/01/15 09:45:59;;;;;;;2.47;0.63;;;;;;;;;;5035228;28;20811;-69
2024/01/15 09:48:26;;;;;;;2.90;1.30;;;;;;;;;;5055891;28;20425;-69
2024/01/15 09:50:53;;;;;;;1.87;1.03;;;;;;;;;;5023015;28;20447;-69
2024/01/15 09:53:21;;;;;;;2.93;0.73;;;;;;;;;;5039513;28;20432;-69
2024/01/15 09:55:49;;;;;;;3.33;1.10;;;;;;;;;;5056427;28;20421;-69
2024/01/15 09:58:16;;;;;;;3.17;1.10;;;;;;;;;;5039355;28;20922;-69
2024/01/15 10:01:01;;;;;;;3.27;1.17;;;;;;;;;;5055765;28;20729;-69
2024/01/15 10:03:32;;;;;;;4.57;1.63;;;;;;;;;;5056231;28;20428;-69
2024/01/15 10:05:59;;;;;;;4.13;1.50;;;;;;;;;;5073528;28;20457;-69
2024/01/15 10:08:26;;;;;;;4.70;1.60;;;;;;;;;;5073315;28;20452;-69
2024/01/15 10:10:53;;;;;;;5.27;1.30;;;;;;;;;;5055641;28;20960;-69
2024/01/15 10:13:20;;;;;;;3.60;1.33;;;;;;;;;;5039259;28;20432;-69
2024/01/15 10:15:47;;;;;;;3.57;1.20;;;;;;;;;;5055634;28;20432;-69
2024/01/15 10:18:14;;;;;;;5.20;1.67;;;;;;;;;;5055639;28;20430;-69
2024/01/15 10:20:42;;;;;;;7.03;1.60;;;;;;;;;;5074063;28;20416;-69
2024/01/15 10:23:09;;;;;;;6.13;1.30;;;;;;;;;;5056075;28;20428;-69
2024/01/15 10:25:36;;;;;;;5.63;1.23;;;;;;;;;;5055520;28;20451;-70
2024/01/15 10:28:03;;;;;;;2.37;0.93;;;;;;;;;;5039037;28;20753;-70
2024/01/15 10:30:31;;;;;;;2.07;0.90;;;;;;;;;;5055691;28;20865;-76
2024/01/15 10:32:59;;;;;;;3.87;0.90;;;;;;;;;;5055528;28;20433;-70
2024/01/15 10:35:27;;;;;;;4.53;1.37;;;;;;;;;;5039471;28;20775;-74
2024/01/15 10:37:54;;;;;;;6.53;1.17;;;;;;;;;;5055515;28;20441;-76
2024/01/15 10:40:21;;;;;;;0.83;0.30;;;;;;;;;;5055605;28;20963;-70
2024/01/15 10:42:48;;;;;;;1.47;0.80;;;;;;;;;;5073645;28;20427;-69
2024/01/15 10:45:15;;;;;;;3.63;1.50;;;;;;;;;;5055583;28;20470;-69
2024/01/15 10:47:42;;;;;;;1.77;0.83;;;;;;;;;;5038883;28;20517;-73
2024/01/15 10:50:10;;;;;;;3.40;0.87;;;;;;;;;;5055637;28;20409;-70
2024/01/15 10:52:37;;;;;;;2.27;0.90;;;;;;;;;;5073656;28;20450;-70
2024/01/15 10:55:04;;;;;;;2.53;1.30;;;;;;;;;;5055747;28;20507;-74
2024/01/15 10:57:38;;;;;;;2.03;0.70;;;;;;;;;;5056302;28;20456;-70
2024/01/15 11:00:05;;;;;;;1.63;0.97;;;;;;;;;;5055994;28;20448;-70
2024/01/15 11:02:36;;;;;;;3.63;1.40;;;;;;;;;;5055761;28;20439;-69
2024/01/15 11:05:03;;;;;;;4.67;1.70;;;;;;;;;;5067088;28;20459;-70
2024/01/15 11:07:30;;;;;;;1.67;1.07;;;;;;;;;;5032663;28;20513;-70
2024/01/15 11:09:59;;;;;;;2.80;1.20;;;;;;;;;;5087335;28;20450;-70
2024/01/15 11:12:26;;;;;;;1.60;0.80;;;;;;;;;;5070059;28;20415;-69
2024/01/15 11:15:01;;;;;;;2.57;0.90;;;;;;;;;;5052911;28;20467;-70
2024/01/15 11:17:27;;;;;;;1.23;0.90;;;;;;;;;;5069464;28;20511;-70
2024/01/15 11:19:54;;;;;;;2.53;1.07;;;;;;;;;;5033703;28;20522;-69
2024/01/15 11:22:34;;;;;;;2.90;1.17;;;;;;;;;;5032854;28;20433;-70
2024/01/15 11:25:13;;;;;;;2.13;0.90;;;;;;;;;;5032104;28;20451;-74
2024/01/15 11:27:41;;;;;;;4.53;1.60;;;;;;;;;;5032562;28;21038;-76
2024/01/15 11:30:10;;;;;;;5.57;0.90;;;;;;;;;;5050841;28;20432;-68
2024/01/15 11:36:53;;;;;;;4.93;1.57;;;;;;;;;;5066974;28;20442;-68
2024/01/15 11:39:32;;;;;;;3.50;1.23;;;;;;;;;;5048885;28;20439;-69
2024/01/15 11:42:00;;;;;;;5.77;2.40;;;;;;;;;;5048729;28;20526;-69
2024/01/15 11:44:27;;;;;;;3.93;1.47;;;;;;;;;;5048884;28;20432;-68
2024/01/15 11:46:57;;;;;;;6.03;2.07;;;;;;;;;;5048804;28;20861;-69
2024/01/15 11:49:30;;;;;;;3.70;1.20;;;;;;;;;;5066754;28;20783;-69
2024/01/15 11:51:58;;;;;;;2.67;1.17;;;;;;;;;;5049102;28;20438;-69
2024/01/15 11:54:24;;;;;;;4.07;1.30;;;;;;;;;;5049080;28;20460;-75
2024/01/15 11:56:51;;;;;;;2.73;1.50;;;;;;;;;;5048801;28;20428;-70
2024/01/15 11:59:18;;;;;;;1.67;0.87;;;;;;;;;;5048730;28;20432;-74
2024/01/15 12:01:45;;;;;;;2.67;1.20;;;;;;;;;;5048451;28;20476;-74
2024/01/15 12:04:13;;;;;;;4.93;0.70;;;;;;;;;;5020299;28;20556;-75
2024/01/15 12:06:44;;;;;;;2.90;0.90;;;;;;;;;;5032391;28;20575;-75
2024/01/15 12:09:12;;;;;;;4.97;1.23;;;;;;;;;;5032699;28;20453;-74
2024/01/15 12:11:39;;;;;;;2.03;0.83;;;;;;;;;;5048531;28;20748;-75
2024/01/15 12:14:06;;;;;;;1.27;0.70;;;;;;;;;;5032488;28;20432;-69
2024/01/15 12:16:34;;;;;;;5.67;1.13;;;;;;;;;;5015145;28;20945;-74
2024/01/15 12:19:01;;;;;;;3.57;1.00;;;;;;;;;;5032105;28;20420;-77
2024/01/15 12:21:28;;;;;;;8.97;2.23;;;;;;;;;;5014567;28;20478;-69
2024/01/15 12:23:59;;;;;;;2.33;1.00;;;;;;;;;;5031787;28;20455;-69
2024/01/15 12:26:26;;;;;;;4.07;1.57;;;;;;;;;;5048857;28;20468;-69
2024/01/15 12:28:54;;;;;;;3.40;1.43;;;;;;;;;;5031708;28;20449;-69
2024/01/15 12:31:38;;;;;;;1.20;0.80;;;;;;;;;;5047796;28;20548;-69
2024/01/15 12:34:05;;;;;;;1.40;0.60;;;;;;;;;;5030975;28;20799;-69
2024/01/15 12:36:50;;;;;;;3.57;1.30;;;;;;;;;;5064888;28;20802;-69
2024/01/15 12:39:16;;;;;;;2.73;0.90;;;;;;;;;;5065656;28;20422;-69
2024/01/15 12:42:01;;;;;;;4.40;1.00;;;;;;;;;;5052785;28;20423;-69
2024/01/15 12:44:28;;;;;;;0.77;0.70;;;;;;;;;;5049592;28;20461;-69
2024/01/15 12:46:56;;;;;;;2.17;1.07;;;;;;;;;;5085656;28;20467;-70
2024/01/15 12:49:23;;;;;;;2.43;1.27;;;;;;;;;;5035053;28;20428;-69
2024/01/15 12:51:54;;;;;;;1.43;0.90;;;;;;;;;;5034722;28;20435;-68
2024/01/15 12:54:38;;;;;;;1.87;1.13;;;;;;;;;;5070336;28;20415;-68
2024/01/15 12:57:05;;;;;;;1.30;0.60;;;;;;;;;;5067287;28;21726;-68
2024/01/15 12:59:52;;;;;;;4.97;1.27;;;;;;;;;;5070300;28;20456;-68
2024/01/15 13:02:21;;;;;;;1.40;0.80;;;;;;;;;;5051126;28;20423;-71
2024/01/15 13:04:49;;;;;;;2.73;0.90;;;;;;;;;;5042419;28;20471;-69
2024/01/15 13:07:16;;;;;;;5.83;1.70;;;;;;;;;;5067059;28;20471;-69
2024/01/15 13:09:43;;;;;;;2.70;1.20;;;;;;;;;;5056413;28;20598;-69
2024/01/15 13:12:11;;;;;;;2.47;1.20;;;;;;;;;;5065252;28;20425;-69
2024/01/15 13:14:38;;;;;;;5.33;2.47;;;;;;;;;;5031371;28;20503;-68
2024/01/15 13:17:06;;;;;;;2.00;1.13;;;;;;;;;;5047562;28;21195;-69
2024/01/15 13:19:33;;;;;;;6.03;2.00;;;;;;;;;;5047278;28;20432;-68
2024/01/15 13:22:00;;;;;;;6.13;2.20;;;;;;;;;;5022395;28;20452;-69
2024/01/15 13:24:28;;;;;;;6.20;2.30;;;;;;;;;;5047304;28;20428;-68
2024/01/15 13:26:57;;;;;;;4.53;1.70;;;;;;;;;;5030303;28;20465;-69
2024/01/15 13:29:24;;;;;;;5.77;1.80;;;;;;;;;;5046837;28;20467;-73
2024/01/15 13:31:51;;;;;;;3.53;1.70;;;;;;;;;;5045517;28;20498;-73
2024/01/15 13:34:18;;;;;;;2.93;1.20;;;;;;;;;;5049021;28;20439;-72
2024/01/15 13:36:45;;;;;;;3.07;2.03;;;;;;;;;;5066970;28;20920;-73
2024/01/15 13:39:12;;;;;;;2.27;1.00;;;;;;;;;;5050324;28;20515;-74
2024/01/15 13:41:41;;;;;;;1.50;0.73;;;;;;;;;;5084526;28;20427;-74
2024/01/15 13:44:10;;;;;;;3.40;1.20;;;;;;;;;;5049729;28;20578;-75
2024/01/15 13:46:38;;;;;;;3.10;1.37;;;;;;;;;;5033882;28;20546;-75
2024/01/15 13:49:05;;;;;;;4.03;1.60;;;;;;;;;;5084531;28;20866;-75
2024/01/15 13:51:34;;;;;;;3.57;1.00;;;;;;;;;;5084158;28;20763;-75
2024/01/15 13:54:04;;;;;;;2.33;1.20;;;;;;;;;;5066227;28;20790;-75
2024/01/15 13:56:35;;;;;;;3.60;1.00;;;;;;;;;;5066245;28;20807;-76
2024/01/15 13:59:04;;;;;;;3.90;0.63;;;;;;;;;;5033093;28;20436;-76
2024/01/15 14:01:33;;;;;;;2.40;0.90;;;;;;;;;;5055241;28;20431;-70
2024/01/15 14:04:00;;;;;;;3.30;1.40;;;;;;;;;;5094037;28;20510;-68
2024/01/15 14:06:27;;;;;;;1.60;0.97;;;;;;;;;;5059144;28;20463;-69
2024/01/15 14:08:53;;;;;;;2.73;1.10;;;;;;;;;;5075832;28;20451;-69
2024/01/15 14:11:20;;;;;;;5.33;1.87;;;;;;;;;;5094166;28;20827;-69
2024/01/15 14:13:47;;;;;;;1.40;0.87;;;;;;;;;;5057313;28;20773;-69
2024/01/15 14:16:15;;;;;;;5.60;1.90;;;;;;;;;;5055273;28;20474;-69
2024/01/15 14:18:51;;;;;;;2.13;1.30;;;;;;;;;;5057755;28;20702;-70
2024/01/15 14:21:18;;;;;;;4.10;2.00;;;;;;;;;;5074150;28;20428;-69
2024/01/15 14:23:45;;;;;;;6.03;1.70;;;;;;;;;;5073522;28;20424;-69
2024/01/15 14:26:12;;;;;;;7.17;1.23;;;;;;;;;;5055454;28;20808;-70
2024/01/15 14:28:56;;;;;;;4.23;1.70;;;;;;;;;;5058173;28;20365;-69
2024/01/15 14:31:24;;;;;;;5.10;2.00;;;;;;;;;;5073124;28;20534;-69
2024/01/15 14:34:09;;;;;;;2.47;1.37;;;;;;;;;;5055128;28;20427;-69
2024/01/15 14:36:35;;;;;;;9.37;2.33;;;;;;;;;;5055336;28;20452;-69
2024/01/15 14:39:02;;;;;;;7.40;2.63;;;;;;;;;;5055301;28;20823;-69
2024/01/15 14:41:29;;;;;;;4.83;1.93;;;;;;;;;;5055178;28;20427;-69
2024/01/15 14:43:57;;;;;;;3.63;1.63;;;;;;;;;;5073608;28;20444;-69
2024/01/15 14:46:24;;;;;;;4.53;2.23;;;;;;;;;;5059331;28;20460;-69
2024/01/15 14:48:50;;;;;;;5.37;1.97;;;;;;;;;;5076775;28;20436;-69
2024/01/15 14:51:18;;;;;;;3.93;1.53;;;;;;;;;;5058992;28;20446;-69
2024/01/15 14:53:45;;;;;;;8.27;5.17;;;;;;;;;;5042379;28;20471;-69
2024/01/15 14:56:11;;;;;;;6.97;4.57;;;;;;;;;;5058924;28;20443;-68
2024/01/15 14:58:42;;;;;;;5.37;3.20;;;;;;;;;;5058762;28;20505;-68
2024/01/15 15:01:26;;;;;;;4.93;2.60;;;;;;;;;;5077154;28;20373;-68
2024/01/15 15:03:53;;;;;;;10.77;4.23;;;;;;;;;;5059184;28;20412;-68
2024/01/15 15:06:21;;;;;;;4.10;2.20;;;;;;;;;;5058467;28;20452;-68
2024/01/15 15:08:48;;;;;;;3.20;1.47;;;;;;;;;;5042022;28;20475;-68
2024/01/15 15:11:15;;;;;;;3.97;2.17;;;;;;;;;;5042263;28;20436;-68
2024/01/15 15:14:00;;;;;;;5.17;2.57;;;;;;;;;;5061880;28;20380;-68
2024/01/15 15:16:27;;;;;;;8.47;4.33;;;;;;;;;;5042340;28;20522;-68
2024/01/15 15:18:54;;;;;;;18.07;8.30;;;;;;;;;;5076254;28;20435;-68
2024/01/15 15:21:22;;;;;;;6.17;3.13;;;;;;;;;;5042458;28;20437;-68
2024/01/15 15:23:49;;;;;;;8.50;4.73;;;;;;;;;;5076102;28;20435;-67
2024/01/15 15:26:17;;;;;;;5.17;2.10;;;;;;;;;;5058309;28;20554;-68
2024/01/15 15:28:43;;;;;;;8.53;3.50;;;;;;;;;;5057305;28;20498;-68
2024/01/15 15:31:11;;;;;;;10.47;4.60;;;;;;;;;;5075964;28;20437;-68
2024/01/15 15:33:38;;;;;;;13.00;6.00;;;;;;;;;;5041857;28;20922;-68
2024/01/15 15:36:06;;;;;;;10.90;5.53;;;;;;;;;;5058200;28;20957;-68
2024/01/15 15:38:32;;;;;;;27.23;13.20;;;;;;;;;;5076643;28;20436;-68